Time;durP1;ratioP1;P1;durP2;ratioP2;P2;SDS_P1;SDS_P2;PMS_P1;PMS_P2;Temp;Humidity;BMP_temperature;BMP_pressure;BME280_temperature;BME280_humidity;BME280_pressure;Samples;Min_cycle;Max_cycle;Signal;HPM_P1;HPM_P2
2022/02/17 00:00:12;;;;;;;;;0.00;0.00;;;;;14.37;73.83;100528.09;5070449;27;50927;-71
2022/02/17 00:02:42;;;;;;;;;0.00;0.00;;;;;14.32;74.07;100515.78;5070183;28;49904;-71
2022/02/17 00:05:09;;;;;;;;;0.00;0.00;;;;;13.95;73.36;100447.97;5052179;28;50015;-71
2022/02/17 00:07:34;;;;;;;;;0.00;0.00;;;;;14.41;73.45;100529.88;5070624;28;49671;-72
2022/02/17 00:10:00;;;;;;;;;0.00;0.00;;;;;14.07;73.42;100477.00;5070180;28;50386;-72
2022/02/17 00:12:25;;;;;;;;;0.00;0.00;;;;;14.37;75.04;100522.81;5070282;28;49660;-72
2022/02/17 00:14:50;;;;;;;;;0.00;0.00;;;;;14.02;75.04;100470.84;5070260;27;49766;-71
2022/02/17 00:17:16;;;;;;;;;0.00;0.00;;;;;14.08;75.10;100481.41;5070492;28;49711;-72
2022/02/17 00:19:41;;;;;;;;;0.00;0.00;;;;;14.21;75.32;100503.44;5073061;27;49785;-72
2022/02/17 00:22:07;;;;;;;;;0.00;0.00;;;;;14.26;75.45;100525.44;5073830;27;49752;-72
2022/02/17 00:24:32;;;;;;;;;0.00;0.00;;;;;14.08;75.79;100522.75;5073868;27;49793;-72
2022/02/17 00:26:58;;;;;;;;;1.00;0.00;;;;;14.25;75.64;100543.03;5055787;28;49888;-72
2022/02/17 00:29:23;;;;;;;;;0.00;0.00;;;;;14.24;74.94;100545.69;5073311;27;50209;-71
2022/02/17 00:31:48;;;;;;;;;0.00;0.00;;;;;12.95;75.70;100367.59;5073544;28;49744;-71
2022/02/17 00:34:14;;;;;;;;;0.00;0.00;;;;;14.15;76.15;100541.25;5073830;27;49673;-72
2022/02/17 00:36:39;;;;;;;;;0.00;0.00;;;;;14.10;77.58;100552.69;5073988;27;49728;-72
2022/02/17 00:39:05;;;;;;;;;0.00;0.00;;;;;14.15;77.33;100566.78;5073425;27;50748;-72
2022/02/17 00:41:32;;;;;;;;;0.50;0.00;;;;;13.89;77.67;100532.38;5073609;28;49838;-72
2022/02/17 00:43:58;;;;;;;;;0.00;0.00;;;;;13.67;77.26;100499.75;5073447;27;49841;-72
2022/02/17 00:46:23;;;;;;;;;0.00;0.00;;;;;12.91;77.06;100410.59;5073440;27;50042;-71
2022/02/17 00:48:49;;;;;;;;;0.00;0.00;;;;;13.90;76.85;100579.03;5073383;28;49920;-72
2022/02/17 00:51:14;;;;;;;;;0.00;0.00;;;;;14.07;77.28;100602.81;5073375;27;49741;-72
2022/02/17 00:53:41;;;;;;;;;0.00;0.00;;;;;13.92;77.01;100579.91;5073486;27;49863;-72
2022/02/17 00:56:06;;;;;;;;;0.00;0.00;;;;;14.07;77.06;100614.25;5073627;28;49491;-72
2022/02/17 00:58:32;;;;;;;;;0.00;0.00;;;;;14.08;77.20;100620.41;5072904;28;51114;-72
2022/02/17 01:00:57;;;;;;;;;0.00;0.00;;;;;14.01;76.52;100609.84;5073080;28;49803;-72
2022/02/17 01:03:23;;;;;;;;;0.00;0.00;;;;;14.11;76.01;100628.38;5073355;28;49834;-72
2022/02/17 01:05:48;;;;;;;;;0.00;0.00;;;;;14.06;76.45;100603.69;5073351;27;49577;-72
2022/02/17 01:08:13;;;;;;;;;0.00;0.00;;;;;14.10;75.88;100631.88;5073203;28;50611;-72
2022/02/17 01:10:39;;;;;;;;;0.00;0.00;;;;;14.10;75.34;100637.16;5073017;27;49690;-72
2022/02/17 01:13:05;;;;;;;;;0.00;0.00;;;;;14.08;74.78;100634.50;5073096;27;49833;-72
2022/02/17 01:15:31;;;;;;;;;0.00;0.00;;;;;14.10;74.65;100621.34;5073234;27;49799;-71
2022/02/17 01:17:57;;;;;;;;;0.00;0.00;;;;;13.91;74.14;100604.53;5072580;28;49924;-71
2022/02/17 01:20:23;;;;;;;;;0.75;0.00;;;;;13.37;74.25;100504.00;5054739;28;49922;-71
2022/02/17 01:22:49;;;;;;;;;0.00;0.00;;;;;13.85;72.82;100589.53;5072891;28;50206;-72
2022/02/17 01:25:15;;;;;;;;;0.00;0.00;;;;;14.07;73.18;100616.91;5054757;28;49764;-71
2022/02/17 01:27:42;;;;;;;;;1.00;0.00;;;;;14.00;72.71;100631.84;5072619;28;50836;-71
2022/02/17 01:30:09;;;;;;;;;0.00;0.00;;;;;12.99;72.23;100494.97;5072337;27;49567;-72
2022/02/17 01:32:34;;;;;;;;;1.50;0.25;;;;;14.04;71.86;100657.38;5066110;28;49773;-71
2022/02/17 01:35:00;;;;;;;;;0.75;0.00;;;;;13.82;70.90;100618.56;5072755;28;49732;-71
2022/02/17 01:37:25;;;;;;;;;0.00;0.00;;;;;14.02;70.12;100648.56;5072619;27;50069;-71
2022/02/17 01:39:51;;;;;;;;;1.50;0.50;;;;;12.81;70.17;100482.53;5072592;28;49688;-71
2022/02/17 01:42:16;;;;;;;;;0.00;0.00;;;;;13.94;69.87;100695.13;5072571;28;50088;-71
2022/02/17 01:44:42;;;;;;;;;0.75;0.75;;;;;13.63;68.67;100645.69;5054394;28;49965;-71
2022/02/17 01:47:09;;;;;;;;;1.00;1.00;;;;;13.50;68.07;100620.97;5072181;27;50557;-71
2022/02/17 01:49:35;;;;;;;;;1.00;1.00;;;;;13.84;68.39;100681.88;5072599;27;49902;-71
2022/02/17 01:52:01;;;;;;;;;1.00;1.00;;;;;13.77;67.68;100669.53;5054278;28;49993;-71
2022/02/17 01:54:27;;;;;;;;;0.75;0.75;;;;;13.74;67.87;100684.47;5072552;27;49789;-72
2022/02/17 01:56:54;;;;;;;;;2.50;1.00;;;;;13.83;67.88;100674.84;5071989;28;50354;-71
2022/02/17 01:59:19;;;;;;;;;0.25;0.25;;;;;13.42;67.28;100615.69;5072290;27;49733;-71
2022/02/17 02:01:45;;;;;;;;;3.75;2.25;;;;;13.74;67.37;100699.41;5072105;28;49665;-71
2022/02/17 02:04:10;;;;;;;;;0.00;0.00;;;;;13.71;67.22;100702.03;5072357;28;49598;-71
2022/02/17 02:06:36;;;;;;;;;3.00;1.00;;;;;13.71;66.30;100702.03;5072139;28;49690;-71
2022/02/17 02:09:02;;;;;;;;;5.25;1.00;;;;;13.49;65.87;100668.44;5053934;28;49746;-71
2022/02/17 02:11:28;;;;;;;;;0.50;0.00;;;;;13.16;65.00;100618.06;5072273;28;49982;-71
2022/02/17 02:13:53;;;;;;;;;1.00;1.00;;;;;13.56;65.13;100705.44;5072169;28;49746;-71
2022/02/17 02:16:19;;;;;;;;;2.25;1.25;;;;;13.44;64.18;100698.31;5071872;28;50422;-71
2022/02/17 02:18:44;;;;;;;;;1.25;1.00;;;;;13.52;63.10;100742.34;5072197;28;50277;-72
2022/02/17 02:21:10;;;;;;;;;2.75;2.00;;;;;13.21;63.36;100684.03;5072016;28;49826;-71
2022/02/17 02:23:37;;;;;;;;;1.75;0.25;;;;;13.44;63.57;100723.81;5072162;27;49906;-71
2022/02/17 02:26:03;;;;;;;;;3.00;0.25;;;;;12.50;63.11;100566.56;5071740;27;49691;-71
2022/02/17 02:28:31;;;;;;;;;1.25;0.50;;;;;13.35;61.66;100705.25;5071600;28;49703;-71
2022/02/17 02:30:58;;;;;;;;;2.75;2.00;;;;;13.35;61.71;100697.34;5065265;27;49854;-71
2022/02/17 02:33:24;;;;;;;;;5.25;2.50;;;;;13.21;61.29;100698.97;5065284;27;49821;-71
2022/02/17 02:35:51;;;;;;;;;2.75;1.50;;;;;13.34;61.87;100735.13;5071335;28;50854;-71
2022/02/17 02:38:16;;;;;;;;;5.25;1.50;;;;;12.88;62.00;100651.22;5071608;28;49805;-71
2022/02/17 02:40:42;;;;;;;;;1.25;1.25;;;;;13.21;61.67;100725.34;5070805;27;49805;-72
2022/02/17 02:43:08;;;;;;;;;3.00;1.00;;;;;13.03;61.36;100690.00;5071913;28;49865;-71
2022/02/17 02:45:34;;;;;;;;;2.50;1.50;;;;;13.34;61.67;100743.94;5071037;27;49830;-71
2022/02/17 02:48:06;;;;;;;;;4.75;2.00;;;;;13.35;61.58;100740.41;5071823;27;49855;-71
2022/02/17 02:50:32;;;;;;;;;3.50;2.00;;;;;13.29;61.66;100771.09;5071412;27;49663;-71
2022/02/17 02:52:57;;;;;;;;;1.75;1.75;;;;;13.23;61.82;100729.78;5071613;27;49694;-72
2022/02/17 02:55:22;;;;;;;;;0.50;0.00;;;;;11.69;61.75;100446.41;5071337;28;50644;-72
2022/02/17 02:57:48;;;;;;;;;1.75;1.00;;;;;11.77;61.73;100468.38;5071269;27;49880;-72
2022/02/17 03:00:13;;;;;;;;;3.75;2.00;;;;;12.77;62.05;100631.78;5071587;27;49791;-72
2022/02/17 03:02:39;;;;;;;;;4.00;3.00;;;;;13.36;60.59;100728.13;5071184;27;49700;-72
2022/02/17 03:05:05;;;;;;;;;1.50;1.50;;;;;13.32;60.75;100750.06;5071137;27;49949;-72
2022/02/17 03:07:30;;;;;;;;;2.75;2.75;;;;;13.22;59.77;100749.09;5071091;27;49733;-71
2022/02/17 03:09:55;;;;;;;;;2.75;0.00;;;;;13.10;59.28;100725.19;5071221;27;50540;-72
2022/02/17 03:12:21;;;;;;;;;2.50;1.00;;;;;12.09;60.32;100531.03;5071458;28;49863;-72
2022/02/17 03:14:46;;;;;;;;;1.50;1.50;;;;;12.93;59.90;100689.88;5052097;28;51233;-72
2022/02/17 03:17:12;;;;;;;;;7.75;3.75;;;;;12.75;60.10;100638.78;5070829;27;49955;-72
2022/02/17 03:19:37;;;;;;;;;3.00;2.00;;;;;13.30;60.02;100731.56;5071227;28;49943;-72
2022/02/17 03:22:03;;;;;;;;;5.75;2.50;;;;;13.41;59.79;100742.22;5071148;27;49770;-72
2022/02/17 03:24:28;;;;;;;;;1.75;1.00;;;;;13.38;59.72;100755.38;5070633;28;51754;-72
2022/02/17 03:26:54;;;;;;;;;5.25;3.00;;;;;13.37;58.43;100738.69;5070991;27;50046;-71
2022/02/17 03:29:19;;;;;;;;;2.25;1.00;;;;;12.99;58.80;100693.47;5070758;27;49950;-71
2022/02/17 03:31:45;;;;;;;;;3.50;2.00;;;;;13.12;58.10;100716.47;5064016;28;50182;-71
2022/02/17 03:34:10;;;;;;;;;3.50;2.25;;;;;13.09;57.44;100724.31;5070648;28;50337;-71
2022/02/17 03:36:36;;;;;;;;;2.00;1.00;;;;;12.66;57.35;100661.53;5070675;28;49822;-72
2022/02/17 03:39:02;;;;;;;;;9.25;5.00;;;;;12.80;56.03;100712.59;5070842;27;49912;-72
2022/02/17 03:41:28;;;;;;;;;4.25;2.00;;;;;13.06;54.63;100766.47;5071075;28;49962;-71
2022/02/17 03:43:53;;;;;;;;;5.00;3.50;;;;;12.56;55.11;100700.91;5070321;27;50978;-71
2022/02/17 03:46:18;;;;;;;;;4.25;2.25;;;;;12.72;54.82;100725.66;5070479;28;49897;-71
2022/02/17 03:48:44;;;;;;;;;3.50;2.00;;;;;12.81;55.73;100774.94;5070786;27;49812;-71
2022/02/17 03:51:09;;;;;;;;;10.00;3.50;;;;;12.73;55.62;100806.44;5070779;27;49686;-72
2022/02/17 03:53:34;;;;;;;;;13.25;5.25;;;;;12.80;56.15;100792.50;5070265;28;50316;-72
2022/02/17 03:56:00;;;;;;;;;6.25;5.75;;;;;12.04;55.94;100675.69;5070342;27;49695;-72
2022/02/17 04:01:09;;;;;;;;;5.25;3.75;;;;;12.16;57.00;100722.31;5070383;28;49732;-72
2022/02/17 04:03:35;;;;;;;;;7.00;4.00;;;;;12.73;57.43;100826.63;5070063;27;49717;-71
2022/02/17 04:06:01;;;;;;;;;9.50;6.00;;;;;11.97;57.55;100701.03;5070316;27;50296;-72
2022/02/17 04:08:26;;;;;;;;;7.00;4.50;;;;;12.70;58.37;100822.22;5070477;28;49740;-72
2022/02/17 04:10:51;;;;;;;;;12.00;8.00;;;;;12.57;58.40;100810.66;5070344;28;49830;-72
2022/02/17 04:13:17;;;;;;;;;3.50;2.50;;;;;12.30;58.20;100763.75;5051864;28;51347;-72
2022/02/17 04:15:42;;;;;;;;;10.00;4.75;;;;;12.68;58.81;100852.94;5051748;28;49711;-72
2022/02/17 04:18:08;;;;;;;;;9.25;5.50;;;;;12.22;59.27;100785.56;5070190;28;49798;-72
2022/02/17 04:20:33;;;;;;;;;6.25;5.25;;;;;12.65;59.01;100841.50;5070259;28;50061;-71
2022/02/17 04:22:58;;;;;;;;;6.25;4.00;;;;;12.38;59.08;100799.84;5069999;28;50607;-71
2022/02/17 04:25:24;;;;;;;;;9.75;4.00;;;;;12.24;58.95;100782.09;5070112;28;50087;-72
2022/02/17 04:27:49;;;;;;;;;5.50;1.00;;;;;12.25;58.65;100791.75;5070212;28;49815;-71
2022/02/17 04:30:14;;;;;;;;;5.25;4.25;;;;;12.65;57.92;100875.72;5048426;28;49900;-71
2022/02/17 04:32:40;;;;;;;;;7.25;4.00;;;;;12.32;57.25;100840.13;5049406;28;50337;-71
2022/02/17 04:35:06;;;;;;;;;9.00;6.50;;;;;12.58;55.86;100887.91;5048358;28;49853;-71
2022/02/17 04:37:32;;;;;;;;;8.25;3.75;;;;;12.49;54.73;100891.28;5043261;28;49832;-71
2022/02/17 04:40:00;;;;;;;;;5.25;4.00;;;;;11.88;55.00;100818.41;5049775;28;49843;-71
2022/02/17 04:42:27;;;;;;;;;6.50;3.50;;;;;12.48;55.34;100913.22;5049369;28;49739;-71
2022/02/17 04:44:53;;;;;;;;;9.25;4.25;;;;;12.32;55.63;100884.88;5049139;28;49830;-71
2022/02/17 04:47:19;;;;;;;;;10.00;5.00;;;;;12.13;54.83;100883.69;5049451;28;49661;-71
2022/02/17 04:49:44;;;;;;;;;12.00;8.25;;;;;12.35;54.79;100928.78;5049602;28;49663;-71
2022/02/17 04:52:10;;;;;;;;;8.75;3.50;;;;;12.15;54.41;100905.66;5049454;28;50877;-71
2022/02/17 04:54:35;;;;;;;;;7.00;4.50;;;;;12.28;54.09;100967.28;5049492;28;49736;-71
2022/02/17 04:57:03;;;;;;;;;10.50;8.50;;;;;12.15;54.30;100949.50;5048118;28;50120;-71
2022/02/17 04:59:28;;;;;;;;;10.75;8.50;;;;;11.65;54.79;100879.31;5049676;28;50395;-70
2022/02/17 05:01:54;;;;;;;;;10.25;5.00;;;;;12.15;54.70;100975.81;5048921;28;50631;-71
2022/02/17 05:04:19;;;;;;;;;10.00;9.00;;;;;12.12;55.06;100941.56;5050060;28;49709;-71
2022/02/17 05:06:45;;;;;;;;;8.50;8.50;;;;;12.12;54.67;100983.66;5053076;28;50042;-71
2022/02/17 05:09:10;;;;;;;;;12.75;7.50;;;;;11.84;54.87;100933.19;5052974;28;49834;-71
2022/02/17 05:11:35;;;;;;;;;10.50;6.25;;;;;12.10;54.82;100972.25;5052690;28;49801;-71
2022/02/17 05:14:01;;;;;;;;;10.50;6.00;;;;;12.11;54.57;100969.63;5052926;28;49912;-71
2022/02/17 05:16:27;;;;;;;;;9.50;5.00;;;;;11.85;54.85;100937.56;5052616;28;49669;-71
2022/02/17 05:18:53;;;;;;;;;11.50;4.75;;;;;12.08;54.66;100998.53;5052777;28;49894;-71
2022/02/17 05:21:19;;;;;;;;;6.75;4.00;;;;;11.72;54.39;100939.06;5052438;28;49752;-71
2022/02/17 05:23:45;;;;;;;;;15.00;8.50;;;;;12.04;54.40;101002.81;5052515;28;49834;-71
2022/02/17 05:26:12;;;;;;;;;13.00;6.25;;;;;11.74;54.77;100974.16;5052777;28;49829;-71
2022/02/17 05:28:38;;;;;;;;;12.25;8.00;;;;;11.26;54.04;100886.44;5056080;28;49720;-71
2022/02/17 05:31:03;;;;;;;;;12.50;8.25;;;;;11.70;54.38;100984.63;5072450;27;50547;-69
2022/02/17 05:33:29;;;;;;;;;6.50;5.00;;;;;11.95;54.28;101025.44;5072627;27;49774;-69
2022/02/17 05:35:54;;;;;;;;;17.75;10.00;;;;;11.86;54.34;101009.47;5072596;28;50029;-71
2022/02/17 05:38:19;;;;;;;;;4.25;3.00;;;;;11.65;54.13;100984.50;5072432;27;49952;-69
2022/02/17 05:40:45;;;;;;;;;11.50;8.00;;;;;11.90;53.86;101035.91;5072728;28;50041;-69
2022/02/17 05:43:10;;;;;;;;;7.00;3.00;;;;;11.88;54.14;101034.09;5073009;28;49671;-64
2022/02/17 05:45:36;;;;;;;;;7.75;5.25;;;;;11.87;54.65;101045.44;5072225;28;49706;-68
2022/02/17 05:48:02;;;;;;;;;12.00;8.50;;;;;11.78;54.03;101025.09;5072548;27;50073;-64
2022/02/17 05:50:27;;;;;;;;;13.75;7.50;;;;;11.75;54.12;101019.75;5072207;28;49972;-64
2022/02/17 05:52:53;;;;;;;;;9.00;8.25;;;;;11.82;54.30;101039.22;5072382;28;49772;-64
2022/02/17 05:55:19;;;;;;;;;15.25;6.00;;;;;11.72;54.40;101024.97;5072559;28;49866;-66
2022/02/17 05:57:44;;;;;;;;;9.75;7.50;;;;;11.70;54.43;101021.44;5072604;28;49694;-66
2022/02/17 06:00:11;;;;;;;;;5.00;3.50;;;;;11.53;54.52;101002.66;5071739;27;49848;-64
2022/02/17 06:02:37;;;;;;;;;8.00;5.00;;;;;11.71;55.03;101038.97;5071201;27;49658;-64
2022/02/17 06:05:03;;;;;;;;;8.75;5.25;;;;;11.59;55.15;101033.47;5072264;28;49694;-65
2022/02/17 06:07:29;;;;;;;;;10.50;6.25;;;;;11.60;55.78;101051.03;5072377;28;49759;-73
2022/02/17 06:09:54;;;;;;;;;9.50;4.75;;;;;11.65;55.17;101057.25;5071766;28;50173;-67
2022/02/17 06:12:20;;;;;;;;;6.25;5.00;;;;;11.64;55.57;101053.72;5071941;27;49961;-66
2022/02/17 06:14:45;;;;;;;;;10.75;8.50;;;;;11.70;55.88;101081.91;5072181;27;50215;-66
2022/02/17 06:17:10;;;;;;;;;9.00;8.75;;;;;11.72;55.97;101073.19;5070970;28;49813;-67
2022/02/17 06:19:36;;;;;;;;;8.50;7.75;;;;;11.77;55.78;101062.75;5071873;28;50420;-68
2022/02/17 06:22:01;;;;;;;;;10.75;7.75;;;;;11.75;56.35;101069.72;5072030;28;49869;-65
2022/02/17 06:24:26;;;;;;;;;10.50;9.25;;;;;11.76;56.06;101069.75;5072026;28;50210;-65
2022/02/17 06:26:52;;;;;;;;;16.25;9.75;;;;;11.57;56.58;101029.91;5072190;28;49656;-64
2022/02/17 06:29:17;;;;;;;;;10.75;8.50;;;;;11.77;56.96;101073.28;5071443;28;49738;-65
2022/02/17 06:31:44;;;;;;;;;9.50;8.25;;;;;11.74;57.01;101083.75;5071487;28;49690;-64
2022/02/17 06:34:10;;;;;;;;;8.75;8.75;;;;;11.77;57.04;101086.44;5071772;28;49726;-65
2022/02/17 06:36:35;;;;;;;;;7.75;7.50;;;;;11.76;57.36;101087.28;5072109;28;49779;-65
2022/02/17 06:39:00;;;;;;;;;10.25;9.75;;;;;11.73;57.45;101101.28;5071528;28;50277;-65
2022/02/17 06:41:26;;;;;;;;;9.75;7.25;;;;;11.76;57.57;101105.69;5072014;27;49738;-65
2022/02/17 06:43:51;;;;;;;;;20.50;10.00;;;;;11.32;57.22;101057.41;5071410;28;49840;-65
2022/02/17 06:46:18;;;;;;;;;15.00;10.50;;;;;11.71;57.47;101102.97;5071495;28;49556;-66
2022/02/17 06:48:44;;;;;;;;;13.50;8.00;;;;;11.75;57.56;101109.19;5071313;28;49879;-65
2022/02/17 06:51:09;;;;;;;;;15.50;7.75;;;;;11.78;57.54;101122.44;5071376;28;49658;-67
2022/02/17 06:53:35;;;;;;;;;8.25;5.25;;;;;11.75;57.24;101112.69;5071478;27;49753;-66
2022/02/17 06:56:00;;;;;;;;;13.75;12.00;;;;;11.76;57.36;101106.59;5071631;27;49779;-66
2022/02/17 06:58:26;;;;;;;;;12.75;8.75;;;;;11.59;57.52;101091.31;5071082;27;49715;-67
2022/02/17 07:00:51;;;;;;;;;20.25;13.25;;;;;11.32;57.51;101053.03;5071077;27;49770;-66
2022/02/17 07:03:17;;;;;;;;;9.75;9.75;;;;;11.71;57.48;101104.72;5071271;28;49720;-66
2022/02/17 07:05:42;;;;;;;;;10.25;8.25;;;;;11.55;57.40;101094.72;5071299;27;49753;-71
2022/02/17 07:08:08;;;;;;;;;12.50;6.75;;;;;11.74;57.22;101131.97;5071376;28;50212;-67
2022/02/17 07:13:18;;;;;;;;;10.75;9.75;;;;;11.71;56.97;101150.31;5071043;27;49751;-64
2022/02/17 07:15:45;;;;;;;;;11.75;8.25;;;;;11.70;57.39;101147.66;5071128;28;49751;-64
2022/02/17 07:18:10;;;;;;;;;15.75;9.25;;;;;11.44;58.00;101111.16;5070686;28;50844;-63
2022/02/17 07:20:37;;;;;;;;;9.75;9.50;;;;;11.64;57.51;101142.25;5070791;28;49908;-64
2022/02/17 07:23:02;;;;;;;;;18.50;11.25;;;;;11.28;57.67;101090.59;5083386;27;49467;-66
2022/02/17 07:25:28;;;;;;;;;15.25;9.50;;;;;11.62;56.94;101144.84;5085990;28;49700;-65
2022/02/17 07:27:54;;;;;;;;;10.00;6.50;;;;;11.71;57.43;101170.47;5085105;27;49914;-64
2022/02/17 07:30:19;;;;;;;;;12.25;9.75;;;;;11.51;57.09;101130.59;5086229;28;49491;-64
2022/02/17 07:32:45;;;;;;;;;11.50;9.25;;;;;11.75;56.92;101185.47;5088999;28;49235;-66
2022/02/17 07:35:11;;;;;;;;;13.75;10.00;;;;;11.61;57.17;101169.38;5083247;27;49543;-68
2022/02/17 07:37:37;;;;;;;;;14.75;10.50;;;;;11.69;56.86;101174.81;5087356;28;49492;-66
2022/02/17 07:40:05;;;;;;;;;10.50;6.50;;;;;11.83;56.73;101196.19;5082797;28;49527;-65
2022/02/17 07:42:30;;;;;;;;;17.00;10.75;;;;;11.84;56.60;101209.38;5081160;28;49463;-64
2022/02/17 07:44:56;;;;;;;;;12.25;7.75;;;;;11.90;56.45;101217.41;5080771;28;50395;-61
2022/02/17 07:47:23;;;;;;;;;14.75;9.00;;;;;11.89;56.37;101206.88;5075776;28;51253;-64
2022/02/17 07:49:48;;;;;;;;;10.75;8.00;;;;;11.76;56.15;101195.13;5088044;28;49633;-64
2022/02/17 07:52:13;;;;;;;;;9.25;6.75;;;;;11.90;56.50;101209.53;5073943;28;49728;-65
2022/02/17 07:54:39;;;;;;;;;12.75;11.75;;;;;11.88;56.35;101199.84;5080242;28;49694;-64
2022/02/17 07:57:05;;;;;;;;;10.00;8.75;;;;;11.89;56.55;101207.75;5082035;28;49657;-65
2022/02/17 07:59:31;;;;;;;;;19.75;9.50;;;;;11.89;56.30;101209.50;5085500;28;49628;-64
2022/02/17 08:01:57;;;;;;;;;18.25;10.75;;;;;11.92;56.25;101217.44;5083938;28;49780;-63
2022/02/17 08:04:22;;;;;;;;;14.00;10.25;;;;;11.97;56.48;101219.34;5083153;28;49243;-63
2022/02/17 08:06:47;;;;;;;;;11.00;10.00;;;;;12.10;56.86;101223.13;5080505;28;49742;-64
2022/02/17 08:09:13;;;;;;;;;13.50;11.25;;;;;12.20;55.99;101229.47;5067680;27;49433;-64
2022/02/17 08:11:38;;;;;;;;;10.75;7.75;;;;;12.25;56.43;101222.56;5072717;28;49916;-64
2022/02/17 08:14:03;;;;;;;;;16.25;10.75;;;;;12.25;56.24;101220.81;5084312;28;49962;-65
2022/02/17 08:16:29;;;;;;;;;15.75;11.00;;;;;11.99;55.91;101175.53;5082519;28;50297;-65
2022/02/17 08:18:54;;;;;;;;;16.25;8.75;;;;;12.30;56.05;101224.44;5086182;28;49781;-65
2022/02/17 08:21:20;;;;;;;;;11.25;8.75;;;;;11.82;55.46;101142.69;5083728;28;49408;-65
2022/02/17 08:23:45;;;;;;;;;12.00;6.25;;;;;12.42;56.24;101244.88;5080396;28;49842;-65
2022/02/17 08:26:10;;;;;;;;;13.75;12.00;;;;;12.35;56.34;101250.84;5086641;28;50074;-64
2022/02/17 08:28:36;;;;;;;;;10.50;9.00;;;;;12.33;56.21;101244.66;5086678;28;49294;-66
2022/02/17 08:31:01;;;;;;;;;17.75;11.50;;;;;12.29;56.41;101222.66;5085902;28;49613;-65
2022/02/17 08:33:26;;;;;;;;;12.75;8.50;;;;;12.53;56.11;101256.50;5087116;28;49324;-65
2022/02/17 08:35:52;;;;;;;;;17.75;13.00;;;;;12.59;55.93;101250.50;5085350;28;50501;-64
2022/02/17 08:38:18;;;;;;;;;12.25;9.75;;;;;12.58;56.09;101265.41;5084139;27;49469;-64
2022/02/17 08:40:44;;;;;;;;;11.75;6.75;;;;;12.49;56.26;101245.88;5086318;28;49427;-64
2022/02/17 08:43:10;;;;;;;;;11.00;9.25;;;;;12.64;56.29;101261.97;5088366;28;49595;-65
2022/02/17 08:45:43;;;;;;;;;18.00;12.75;;;;;12.51;55.89;101249.44;5071503;28;50783;-65
2022/02/17 08:48:09;;;;;;;;;8.75;6.00;;;;;12.85;55.74;101285.25;5071695;28;49648;-65
2022/02/17 08:50:37;;;;;;;;;15.25;15.25;;;;;12.93;55.37;101285.38;5072061;28;50315;-65
2022/02/17 08:53:02;;;;;;;;;17.25;11.50;;;;;13.00;55.34;101276.75;5071865;28;49939;-65
2022/02/17 08:55:28;;;;;;;;;17.00;12.50;;;;;13.00;55.32;101282.91;5054296;28;50199;-65
2022/02/17 08:57:54;;;;;;;;;15.75;11.50;;;;;13.08;55.40;101283.06;5072120;28;49714;-65
2022/02/17 09:00:21;;;;;;;;;18.00;11.75;;;;;13.12;54.79;101271.69;5072135;27;49867;-65
2022/02/17 09:02:46;;;;;;;;;11.75;9.00;;;;;13.11;54.87;101281.34;5072040;28;49583;-65
2022/02/17 09:05:12;;;;;;;;;20.00;14.50;;;;;13.11;54.48;101283.09;5072152;27;49711;-65
2022/02/17 09:07:37;;;;;;;;;15.75;12.25;;;;;13.14;54.28;101284.06;5075107;27;49593;-66
2022/02/17 09:10:04;;;;;;;;;12.25;10.00;;;;;13.10;55.03;101282.22;5072442;28;49786;-66
2022/02/17 09:12:34;;;;;;;;;11.50;9.00;;;;;12.90;55.30;101260.75;5070593;28;49895;-65
2022/02/17 09:15:00;;;;;;;;;17.25;12.25;;;;;12.98;55.17;101271.47;5069575;28;50025;-66
2022/02/17 09:17:25;;;;;;;;;9.00;5.75;;;;;13.12;54.84;101287.53;5069561;28;50114;-64
2022/02/17 09:19:51;;;;;;;;;11.75;9.75;;;;;12.92;55.04;101267.81;5071368;28;50285;-64
2022/02/17 09:22:16;;;;;;;;;15.50;12.75;;;;;13.09;54.88;101300.66;5071855;28;49893;-65
2022/02/17 09:24:42;;;;;;;;;11.75;7.75;;;;;13.05;54.51;101315.53;5071715;28;50269;-63
2022/02/17 09:27:07;;;;;;;;;12.50;9.25;;;;;13.05;54.83;101301.47;5072757;28;49779;-64
2022/02/17 09:29:33;;;;;;;;;11.75;9.00;;;;;12.87;55.26;101275.63;5072655;27;49842;-66
2022/02/17 09:31:58;;;;;;;;;19.25;11.75;;;;;13.14;54.91;101307.81;5067175;28;50070;-69
2022/02/17 09:34:24;;;;;;;;;20.00;13.75;;;;;13.11;54.89;101317.38;5082848;27;49876;-65
2022/02/17 09:36:49;;;;;;;;;17.50;12.75;;;;;12.85;54.82;101301.06;5089674;27;49483;-75
2022/02/17 09:39:15;;;;;;;;;17.00;12.25;;;;;12.72;54.69;101263.03;5058257;28;49840;-73
2022/02/17 09:41:41;;;;;;;;;12.25;9.00;;;;;13.07;54.57;101345.44;5055892;28;50296;-72
2022/02/17 09:44:09;;;;;;;;;15.75;8.75;;;;;13.12;54.96;101346.44;5075735;27;50456;-71
2022/02/17 09:46:36;;;;;;;;;12.25;11.50;;;;;13.18;54.68;101343.91;5074104;27;49819;-74
2022/02/17 09:49:03;;;;;;;;;11.00;7.50;;;;;13.26;54.46;101353.75;5071432;28;49792;-73
2022/02/17 09:51:30;;;;;;;;;13.75;8.50;;;;;12.43;53.94;101174.66;5072122;27;50075;-73
2022/02/17 09:53:56;;;;;;;;;12.75;10.25;;;;;13.61;53.20;101360.56;5072261;28;50839;-73
2022/02/17 09:56:23;;;;;;;;;24.00;12.25;;;;;12.96;53.37;101233.66;5072015;28;49866;-72
2022/02/17 09:58:49;;;;;;;;;12.75;9.25;;;;;13.78;54.06;101365.22;5072275;27;49709;-72
2022/02/17 10:01:19;;;;;;;;;10.00;9.50;;;;;13.20;52.65;101280.69;5072416;28;50057;-72
2022/02/17 10:03:45;;;;;;;;;12.00;9.50;;;;;13.44;52.32;101302.22;5071545;28;51026;-73
2022/02/17 10:06:13;;;;;;;;;11.00;7.25;;;;;12.67;52.46;101161.09;5053651;28;49719;-73
2022/02/17 10:08:39;;;;;;;;;13.25;11.00;;;;;13.22;52.14;101212.16;5062364;27;49970;-73
2022/02/17 10:11:07;;;;;;;;;12.75;11.50;;;;;14.19;51.65;101376.50;5054566;28;49934;-73
2022/02/17 10:13:33;;;;;;;;;22.50;12.25;;;;;13.11;52.22;101161.84;5073915;27;49842;-73
2022/02/17 10:15:59;;;;;;;;;7.25;6.00;;;;;14.40;51.61;101365.38;5071827;28;49819;-73
2022/02/17 10:18:30;;;;;;;;;11.50;6.50;;;;;14.16;51.72;101331.53;5071545;27;49951;-74
2022/02/17 10:21:09;;;;;;;;;14.25;7.75;;;;;13.58;51.39;101247.06;5071961;28;49766;-73
2022/02/17 10:23:46;;;;;;;;;11.50;10.00;;;;;14.41;51.59;101386.53;5065269;28;50548;-72
2022/02/17 10:26:14;;;;;;;;;14.25;10.75;;;;;14.41;50.86;101372.44;5069608;27;49624;-73
2022/02/17 10:28:42;;;;;;;;;10.50;9.25;;;;;13.26;51.55;101179.72;5053390;27;49937;-73
2022/02/17 10:31:23;;;;;;;;;11.25;6.00;;;;;14.42;50.41;101384.75;5036963;28;49867;-73
2022/02/17 10:33:54;;;;;;;;;9.50;7.25;;;;;13.89;50.32;101326.72;5071293;28;50943;-73
2022/02/17 10:36:35;;;;;;;;;12.50;9.75;;;;;14.29;51.29;101399.53;5071447;27;49795;-74
2022/02/17 10:39:28;;;;;;;;;14.50;10.25;;;;;13.66;50.98;101295.56;5071904;28;49970;-73
2022/02/17 10:42:01;;;;;;;;;10.00;5.75;;;;;13.83;51.42;101347.75;5071688;28;50074;-72
2022/02/17 10:44:35;;;;;;;;;12.00;7.50;;;;;13.09;50.58;101216.31;5089521;28;49960;-73
2022/02/17 10:47:12;;;;;;;;;6.00;3.00;;;;;12.64;50.08;101129.41;5089642;28;49420;-73
2022/02/17 10:49:51;;;;;;;;;10.00;9.25;;;;;14.03;50.28;101354.22;5089456;27;49681;-73
2022/02/17 10:52:46;;;;;;;;;14.75;10.50;;;;;14.21;50.31;101409.97;5079843;27;49957;-72
2022/02/17 10:55:20;;;;;;;;;10.50;5.75;;;;;14.37;50.13;101419.00;5070807;28;50308;-73
2022/02/17 10:57:46;;;;;;;;;13.00;10.25;;;;;13.96;49.90;101358.50;5084540;27;49830;-72
2022/02/17 11:00:17;;;;;;;;;10.00;4.00;;;;;13.57;49.17;101257.59;5068988;28;49820;-78
2022/02/17 11:02:43;;;;;;;;;10.00;8.25;;;;;13.96;48.14;101316.28;5088020;27;49400;-73
2022/02/17 11:05:11;;;;;;;;;10.00;6.75;;;;;14.73;49.17;101445.16;5084613;27;50397;-73
2022/02/17 11:07:37;;;;;;;;;11.25;7.50;;;;;14.70;48.41;101423.09;5072272;28;49882;-73
2022/02/17 11:10:04;;;;;;;;;14.75;13.50;;;;;14.49;48.32;101389.31;5063888;28;49821;-73
2022/02/17 11:12:30;;;;;;;;;10.50;9.25;;;;;13.57;47.33;101231.22;5081807;27;49779;-72
2022/02/17 11:14:59;;;;;;;;;15.00;13.00;;;;;14.18;48.17;101343.91;5088612;27;50361;-72
2022/02/17 11:17:25;;;;;;;;;11.75;7.25;;;;;13.41;47.17;101230.97;5079949;27;49965;-69
2022/02/17 11:19:54;;;;;;;;;13.75;12.00;;;;;14.21;47.20;101374.75;5076642;27;49779;-69